Terminal Aerodrome Forecast
Issued by NWS

Home | Current Version | Previous Version | Text Only | Print | Product List | Glossary On
Versions: 1 2 3 4 5 6 7 8 9 10 11 12 13 14 15 16 17 18 19 20 21 22 23 24 25 26
000
FTUS45 KGJT 182338
TAFEGE
TAF
KEGE 182338Z 1900/1924 32005KT P6SM VCTS FEW045CB BKN100
      TEMPO 1900/1903 VRB15G25KT -TSRA BKN040CB
     FM190300 VRB05KT P6SM VCSH FEW050 SCT070
     FM191000 VRB03KT P6SM FEW050 SCT100
     FM192000 26013G22KT P6SM FEW070 SCT150=

USA.gov is the U.S. government's official web portal to all federal, state and local government web resources and services.